createdAt,value
2018-12-22T00:00:14.199Z,992.78
2018-12-22T00:01:14.155Z,992.81
2018-12-22T00:02:14.147Z,992.75
2018-12-22T00:03:14.136Z,992.82
2018-12-22T00:04:14.123Z,992.75
2018-12-22T00:05:14.135Z,992.79
2018-12-22T00:06:14.104Z,992.76
2018-12-22T00:07:14.090Z,992.78
2018-12-22T00:08:14.076Z,992.92
2018-12-22T00:09:14.070Z,992.74
2018-12-22T00:10:14.080Z,992.82
2018-12-22T00:11:14.055Z,992.76
2018-12-22T00:12:14.035Z,992.82
2018-12-22T00:13:14.017Z,992.83
2018-12-22T00:14:14.011Z,992.89
2018-12-22T00:15:14.020Z,992.83
2018-12-22T00:16:13.990Z,992.78
2018-12-22T00:17:13.987Z,992.75
2018-12-22T00:18:13.978Z,992.82
2018-12-22T00:19:13.987Z,992.84
2018-12-22T00:20:13.946Z,992.91
2018-12-22T00:21:13.958Z,992.86
2018-12-22T00:22:13.928Z,992.77
2018-12-22T00:23:13.920Z,992.90
2018-12-22T00:24:13.899Z,992.87
2018-12-22T00:25:13.891Z,992.92
2018-12-22T00:26:14.291Z,992.93
2018-12-22T00:27:13.885Z,992.82
2018-12-22T00:28:21.986Z,992.86
2018-12-22T00:29:14.847Z,992.85
2018-12-22T00:30:13.835Z,993.02
2018-12-22T00:31:13.839Z,992.85
2018-12-22T00:32:13.808Z,992.96
2018-12-22T00:33:15.750Z,993.03
2018-12-22T00:34:13.784Z,993.01
2018-12-22T00:35:13.781Z,993.06
2018-12-22T00:36:13.793Z,992.93
2018-12-22T00:37:13.760Z,993.00
2018-12-22T00:38:13.750Z,992.97
2018-12-22T00:39:13.739Z,993.01
2018-12-22T00:40:13.772Z,993.03
2018-12-22T00:41:13.738Z,992.92
2018-12-22T00:42:13.706Z,993.12
2018-12-22T00:43:13.685Z,993.03
2018-12-22T00:44:13.678Z,993.02
2018-12-22T00:45:13.665Z,993.10
2018-12-22T00:46:13.683Z,993.12
2018-12-22T00:47:13.647Z,993.16
2018-12-22T00:48:13.641Z,993.14
2018-12-22T00:49:13.619Z,993.16
2018-12-22T00:50:13.615Z,993.12
2018-12-22T00:51:13.633Z,993.15
2018-12-22T00:52:13.672Z,993.14
2018-12-22T00:53:13.576Z,993.22
2018-12-22T00:54:13.573Z,993.23
2018-12-22T00:55:13.556Z,993.27
2018-12-22T00:56:13.576Z,993.25
2018-12-22T00:57:13.534Z,993.23
2018-12-22T00:58:13.519Z,993.36
2018-12-22T00:59:13.509Z,993.31
2018-12-22T01:00:13.808Z,993.35
2018-12-22T01:01:13.518Z,993.42
2018-12-22T01:02:13.480Z,993.35
2018-12-22T01:03:13.465Z,993.40
2018-12-22T01:04:13.455Z,993.43
2018-12-22T01:05:13.444Z,993.45
2018-12-22T01:06:13.451Z,993.60
2018-12-22T01:07:13.416Z,993.52
2018-12-22T01:08:13.412Z,993.53
2018-12-22T01:09:13.397Z,993.62
2018-12-22T01:10:13.385Z,993.61
2018-12-22T01:11:13.410Z,993.65
2018-12-22T01:12:13.372Z,993.65
2018-12-22T01:13:13.352Z,993.68
2018-12-22T01:14:13.344Z,993.62
2018-12-22T01:15:13.329Z,993.63
2018-12-22T01:16:13.325Z,993.73
2018-12-22T01:17:13.343Z,993.76
2018-12-22T01:18:13.297Z,993.70
2018-12-22T01:19:13.288Z,993.86
2018-12-22T01:20:13.277Z,993.82
2018-12-22T01:21:13.264Z,993.75
2018-12-22T01:22:13.285Z,993.90
2018-12-22T01:23:13.246Z,993.94
2018-12-22T01:24:13.231Z,994.01
2018-12-22T01:25:13.221Z,994.02
2018-12-22T01:26:13.209Z,993.97
2018-12-22T01:27:13.228Z,993.90
2018-12-22T01:28:13.186Z,993.99
2018-12-22T01:29:13.175Z,994.00
2018-12-22T01:30:13.169Z,993.76
2018-12-22T01:31:13.149Z,993.84
2018-12-22T01:32:13.161Z,993.96
2018-12-22T01:33:13.130Z,993.94
2018-12-22T01:34:13.119Z,993.78
2018-12-22T01:35:13.174Z,994.01
2018-12-22T01:36:13.099Z,993.79
2018-12-22T01:37:13.106Z,993.96
2018-12-22T01:38:13.075Z,993.88
2018-12-22T01:39:13.063Z,993.93
2018-12-22T01:40:13.051Z,993.96
2018-12-22T01:41:13.045Z,993.99
2018-12-22T01:42:13.034Z,993.92
2018-12-22T01:43:13.014Z,993.97
2018-12-22T01:44:13.012Z,993.89
2018-12-22T01:45:12.995Z,993.94
2018-12-22T01:46:13.070Z,994.03
2018-12-22T01:47:12.992Z,994.01
2018-12-22T01:48:12.963Z,994.04
2018-12-22T01:49:13.061Z,994.07
2018-12-22T01:50:12.941Z,994.03
2018-12-22T01:51:12.937Z,994.11
2018-12-22T01:52:12.920Z,994.06
2018-12-22T01:53:12.920Z,994.11
2018-12-22T01:54:12.898Z,994.11
2018-12-22T01:55:12.887Z,994.17
2018-12-22T01:56:12.876Z,994.11
2018-12-22T01:57:12.860Z,994.15
2018-12-22T01:58:12.867Z,994.09
2018-12-22T01:59:12.847Z,994.10
2018-12-22T02:00:12.824Z,994.23
2018-12-22T02:01:12.818Z,994.24
2018-12-22T02:02:12.804Z,994.15
2018-12-22T02:03:12.810Z,994.13
2018-12-22T02:04:12.782Z,994.19
2018-12-22T02:05:12.781Z,994.14
2018-12-22T02:06:12.762Z,994.15
2018-12-22T02:07:12.852Z,994.23
2018-12-22T02:08:12.761Z,994.10
2018-12-22T02:09:12.726Z,994.24
2018-12-22T02:10:12.715Z,994.25
2018-12-22T02:11:12.727Z,994.34
2018-12-22T02:12:12.699Z,994.24
2018-12-22T02:13:12.720Z,994.28
2018-12-22T02:14:12.673Z,994.31
2018-12-22T02:15:12.655Z,994.32
2018-12-22T02:16:12.649Z,994.38
2018-12-22T02:17:12.640Z,994.42
2018-12-22T02:18:12.645Z,994.33
2018-12-22T02:19:13.521Z,994.44
2018-12-22T02:20:12.600Z,994.44
2018-12-22T02:21:12.592Z,994.43
2018-12-22T02:22:12.584Z,994.49
2018-12-22T02:23:12.594Z,994.51
2018-12-22T02:24:12.557Z,994.51
2018-12-22T02:25:12.547Z,994.57
2018-12-22T02:26:12.535Z,994.55
2018-12-22T02:27:12.521Z,994.65
2018-12-22T02:28:12.611Z,994.50
2018-12-22T02:29:12.509Z,994.50
2018-12-22T02:30:12.490Z,994.57
2018-12-22T02:31:12.474Z,994.57
2018-12-22T02:32:12.477Z,994.50
2018-12-22T02:33:12.468Z,994.49
2018-12-22T02:34:12.448Z,994.57
2018-12-22T02:35:12.434Z,994.61
2018-12-22T02:36:12.421Z,994.64
2018-12-22T02:37:12.422Z,994.59
2018-12-22T02:38:12.442Z,994.58
2018-12-22T02:39:12.387Z,994.63
2018-12-22T02:40:12.385Z,994.56
2018-12-22T02:41:12.375Z,994.74
2018-12-22T02:42:12.351Z,994.70
2018-12-22T02:43:12.342Z,994.66
2018-12-22T02:44:12.353Z,994.61
2018-12-22T02:45:12.323Z,994.69
2018-12-22T02:46:12.319Z,994.65
2018-12-22T02:47:12.296Z,994.74
2018-12-22T02:48:12.281Z,994.67
2018-12-22T02:49:12.294Z,994.71
2018-12-22T02:50:12.259Z,994.72
2018-12-22T02:51:12.428Z,994.68
2018-12-22T02:52:12.245Z,994.67
2018-12-22T02:53:12.237Z,994.76
2018-12-22T02:54:12.230Z,994.66
2018-12-22T02:55:12.335Z,994.80
2018-12-22T02:56:12.199Z,994.73
2018-12-22T02:57:12.184Z,994.79
2018-12-22T02:58:12.176Z,994.87
2018-12-22T02:59:12.182Z,994.86
2018-12-22T03:00:12.162Z,994.82
2018-12-22T03:01:12.142Z,994.78
2018-12-22T03:02:12.131Z,994.80
2018-12-22T03:03:12.127Z,994.77
2018-12-22T03:04:12.118Z,994.74
2018-12-22T03:05:12.095Z,994.78
2018-12-22T03:06:12.088Z,994.82
2018-12-22T03:07:12.066Z,994.77
2018-12-22T03:08:12.066Z,994.83
2018-12-22T03:09:12.074Z,994.80
2018-12-22T03:10:12.046Z,994.85
2018-12-22T03:11:12.028Z,994.80
2018-12-22T03:12:12.023Z,994.86
2018-12-22T03:13:12.003Z,994.86
2018-12-22T03:14:12.012Z,994.86
2018-12-22T03:15:11.991Z,994.88
2018-12-22T03:16:11.974Z,994.86
2018-12-22T03:17:11.959Z,994.83
2018-12-22T03:18:11.949Z,994.82
2018-12-22T03:19:11.963Z,994.82
2018-12-22T03:20:11.929Z,994.83
2018-12-22T03:21:11.911Z,994.90
2018-12-22T03:22:11.903Z,994.89
2018-12-22T03:23:11.893Z,994.99
2018-12-22T03:24:11.881Z,994.96
2018-12-22T03:25:11.889Z,994.91
2018-12-22T03:26:11.856Z,995.04
2018-12-22T03:27:11.851Z,995.01
2018-12-22T03:28:11.850Z,995.13
2018-12-22T03:29:15.802Z,995.12
2018-12-22T03:30:11.836Z,995.18
2018-12-22T03:31:11.802Z,995.18
2018-12-22T03:32:11.791Z,995.17
2018-12-22T03:33:11.863Z,995.24
2018-12-22T03:34:11.772Z,995.20
2018-12-22T03:35:11.770Z,995.17
2018-12-22T03:36:11.746Z,995.29
2018-12-22T03:37:11.844Z,995.31
2018-12-22T03:38:11.723Z,995.38
2018-12-22T03:39:11.712Z,995.32
2018-12-22T03:40:11.722Z,995.38
2018-12-22T03:41:11.689Z,995.36
2018-12-22T03:42:11.679Z,995.26
2018-12-22T03:43:11.670Z,995.41
2018-12-22T03:44:11.662Z,995.34
2018-12-22T03:45:11.737Z,995.48
2018-12-22T03:46:11.634Z,995.48
2018-12-22T03:47:11.621Z,995.40
2018-12-22T03:48:11.653Z,995.36
2018-12-22T03:49:11.600Z,995.37
2018-12-22T03:50:11.600Z,995.45
2018-12-22T03:51:11.582Z,995.35
2018-12-22T03:52:11.564Z,995.36
2018-12-22T03:53:11.560Z,995.43
2018-12-22T03:54:11.547Z,995.44
2018-12-22T03:55:11.609Z,995.55
2018-12-22T03:56:11.514Z,995.47
2018-12-22T03:57:11.506Z,995.56
2018-12-22T03:58:11.498Z,995.53
2018-12-22T03:59:11.484Z,995.43
2018-12-22T04:00:11.493Z,995.39
2018-12-22T04:01:11.468Z,995.46
2018-12-22T04:02:11.452Z,995.48
2018-12-22T04:03:12.035Z,995.44
2018-12-22T04:04:11.438Z,995.59
2018-12-22T04:05:11.440Z,995.41
2018-12-22T04:06:11.408Z,995.44
2018-12-22T04:07:11.394Z,995.53
2018-12-22T04:08:11.384Z,995.47
2018-12-22T04:09:11.376Z,995.49
2018-12-22T04:10:11.492Z,995.37
2018-12-22T04:11:11.345Z,995.43
2018-12-22T04:12:11.337Z,995.38
2018-12-22T04:13:11.321Z,995.59
2018-12-22T04:14:11.314Z,995.44
2018-12-22T04:15:11.319Z,995.53
2018-12-22T04:16:11.293Z,995.61
2018-12-22T04:17:11.273Z,995.59
2018-12-22T04:18:11.277Z,995.53
2018-12-22T04:19:11.255Z,995.50
2018-12-22T04:20:11.323Z,995.46
2018-12-22T04:21:11.241Z,995.57
2018-12-22T04:22:11.222Z,995.54
2018-12-22T04:23:11.217Z,995.48
2018-12-22T04:24:11.213Z,995.71
2018-12-22T04:25:11.194Z,995.60
2018-12-22T04:26:11.196Z,995.64
2018-12-22T04:27:11.161Z,995.68
2018-12-22T04:28:11.154Z,995.73
2018-12-22T04:29:11.144Z,995.66
2018-12-22T04:30:11.133Z,995.61
2018-12-22T04:31:11.127Z,995.61
2018-12-22T04:32:11.110Z,995.86
2018-12-22T04:33:11.108Z,995.63
2018-12-22T04:34:11.079Z,995.77
2018-12-22T04:35:11.078Z,995.77
2018-12-22T04:36:11.082Z,995.78
2018-12-22T04:37:11.053Z,995.77
2018-12-22T04:38:11.038Z,995.76
2018-12-22T04:39:11.025Z,995.77
2018-12-22T04:40:11.016Z,995.82
2018-12-22T04:41:11.024Z,995.77
2018-12-22T04:42:11.003Z,995.85
2018-12-22T04:43:10.982Z,995.81
2018-12-22T04:44:10.969Z,995.81
2018-12-22T04:45:10.957Z,995.77
2018-12-22T04:46:10.965Z,995.86
2018-12-22T04:47:10.933Z,995.81
2018-12-22T04:48:10.926Z,995.80
2018-12-22T04:49:10.914Z,995.89
2018-12-22T04:50:10.906Z,995.85
2018-12-22T04:51:10.913Z,995.85
2018-12-22T04:52:10.886Z,995.96
2018-12-22T04:53:10.874Z,995.77
2018-12-22T04:54:10.853Z,995.79
2018-12-22T04:55:10.856Z,995.86
2018-12-22T04:56:10.863Z,995.94
2018-12-22T04:57:10.821Z,995.75
2018-12-22T04:58:10.814Z,995.72
2018-12-22T04:59:10.815Z,995.81
2018-12-22T05:00:10.788Z,995.86
2018-12-22T05:01:10.795Z,995.82
2018-12-22T05:02:10.757Z,995.87
2018-12-22T05:03:10.822Z,995.83
2018-12-22T05:04:10.751Z,995.91
2018-12-22T05:05:10.733Z,995.88
2018-12-22T05:06:10.742Z,995.91
2018-12-22T05:07:10.708Z,995.88
2018-12-22T05:08:10.701Z,995.93
2018-12-22T05:09:10.696Z,995.97
2018-12-22T05:10:10.674Z,995.96
2018-12-22T05:11:10.663Z,995.92
2018-12-22T05:12:10.665Z,995.96
2018-12-22T05:13:10.647Z,996.04
2018-12-22T05:14:10.630Z,996.01
2018-12-22T05:15:10.638Z,996.06
2018-12-22T05:16:10.606Z,996.00
2018-12-22T05:17:10.613Z,996.22
2018-12-22T05:18:10.579Z,996.13
2018-12-22T05:19:10.572Z,996.08
2018-12-22T05:20:10.566Z,996.10
2018-12-22T05:21:10.546Z,996.17
2018-12-22T05:22:10.559Z,996.07
2018-12-22T05:23:10.523Z,996.10
2018-12-22T05:24:10.515Z,996.06
2018-12-22T05:25:10.499Z,996.10
2018-12-22T05:26:10.489Z,996.11
2018-12-22T05:27:10.507Z,996.11
2018-12-22T05:28:10.473Z,996.16
2018-12-22T05:29:10.458Z,996.10
2018-12-22T05:30:10.445Z,996.09
2018-12-22T05:31:10.437Z,996.17
2018-12-22T05:32:10.447Z,996.11
2018-12-22T05:33:10.419Z,996.13
2018-12-22T05:34:10.405Z,996.15
2018-12-22T05:35:10.386Z,996.20
2018-12-22T05:36:10.372Z,996.22
2018-12-22T05:37:10.385Z,996.27
2018-12-22T05:38:10.353Z,996.23
2018-12-22T05:39:10.342Z,996.25
2018-12-22T05:40:10.336Z,996.25
2018-12-22T05:41:10.314Z,996.21
2018-12-22T05:42:10.329Z,996.26
2018-12-22T05:43:10.297Z,996.24
2018-12-22T05:44:10.287Z,996.29
2018-12-22T05:45:10.281Z,996.23
2018-12-22T05:46:10.265Z,996.27
2018-12-22T05:47:10.259Z,996.24
2018-12-22T05:48:10.241Z,996.22
2018-12-22T05:49:10.231Z,996.24
2018-12-22T05:50:10.219Z,996.30
2018-12-22T05:51:10.203Z,996.19
2018-12-22T05:52:10.199Z,996.33
2018-12-22T05:53:10.201Z,996.28
2018-12-22T05:54:10.169Z,996.27
2018-12-22T05:55:10.157Z,996.31
2018-12-22T05:56:10.153Z,996.30
2018-12-22T05:57:10.133Z,996.34
2018-12-22T05:58:10.149Z,996.30
2018-12-22T05:59:10.129Z,996.33
2018-12-22T06:00:10.096Z,996.36
2018-12-22T06:01:10.095Z,996.38
2018-12-22T06:02:10.083Z,996.32
2018-12-22T06:03:10.085Z,996.40
2018-12-22T06:04:10.055Z,996.36
2018-12-22T06:05:10.043Z,996.30
2018-12-22T06:06:10.029Z,996.34
2018-12-22T06:07:10.013Z,996.41
2018-12-22T06:08:10.021Z,996.30
2018-12-22T06:09:09.993Z,996.33
2018-12-22T06:10:09.983Z,996.41
2018-12-22T06:11:09.984Z,996.36
2018-12-22T06:12:09.966Z,996.41
2018-12-22T06:13:09.999Z,996.34
2018-12-22T06:14:09.931Z,996.34
2018-12-22T06:15:09.929Z,996.43
2018-12-22T06:16:09.918Z,996.42
2018-12-22T06:17:09.903Z,996.32
2018-12-22T06:18:09.917Z,996.39
2018-12-22T06:19:09.882Z,996.37
2018-12-22T06:20:09.865Z,996.40
2018-12-22T06:21:09.859Z,996.36
2018-12-22T06:22:09.849Z,996.36
2018-12-22T06:23:09.852Z,996.42
2018-12-22T06:24:09.828Z,996.36
2018-12-22T06:25:09.812Z,996.40
2018-12-22T06:26:09.801Z,996.39
2018-12-22T06:27:09.788Z,996.45
2018-12-22T06:28:09.794Z,996.41
2018-12-22T06:29:09.769Z,996.46
2018-12-22T06:30:09.751Z,996.40
2018-12-22T06:31:09.740Z,996.42
2018-12-22T06:32:09.740Z,996.43
2018-12-22T06:33:09.737Z,996.39
2018-12-22T06:34:09.706Z,996.39
2018-12-22T06:35:09.693Z,996.41
2018-12-22T06:36:09.679Z,996.48
2018-12-22T06:37:09.675Z,996.46
2018-12-22T06:38:09.659Z,996.49
2018-12-22T06:39:09.666Z,996.47
2018-12-22T06:40:09.632Z,996.56
2018-12-22T06:41:09.628Z,996.50
2018-12-22T06:42:09.618Z,996.55
2018-12-22T06:43:09.600Z,996.58
2018-12-22T06:44:09.623Z,996.54
2018-12-22T06:45:09.582Z,996.59
2018-12-22T06:46:09.654Z,996.64
2018-12-22T06:47:09.556Z,996.61
2018-12-22T06:48:09.549Z,996.64
2018-12-22T06:49:09.544Z,996.69
2018-12-22T06:50:09.530Z,996.66
2018-12-22T06:51:09.512Z,996.71
2018-12-22T06:52:09.506Z,996.69
2018-12-22T06:53:09.490Z,996.75
2018-12-22T06:54:09.498Z,996.73
2018-12-22T06:55:09.468Z,996.70
2018-12-22T06:56:09.452Z,996.74
2018-12-22T06:57:09.440Z,996.74
2018-12-22T06:58:09.429Z,996.78
2018-12-22T06:59:09.445Z,996.75
2018-12-22T07:00:17.470Z,996.75
2018-12-22T07:01:10.399Z,996.86
2018-12-22T07:02:09.382Z,996.87
2018-12-22T07:03:09.374Z,996.86
2018-12-22T07:04:09.393Z,996.89
2018-12-22T07:05:09.351Z,996.88
2018-12-22T07:06:09.341Z,996.85
2018-12-22T07:07:09.328Z,996.98
2018-12-22T07:08:09.379Z,997.00
2018-12-22T07:09:09.324Z,996.93
2018-12-22T07:10:09.300Z,997.04
2018-12-22T07:11:09.278Z,996.99
2018-12-22T07:12:09.282Z,997.07
2018-12-22T07:13:09.252Z,997.09
2018-12-22T07:14:09.290Z,997.00
2018-12-22T07:15:09.238Z,997.08
2018-12-22T07:16:09.222Z,997.01
2018-12-22T07:17:09.217Z,997.08
2018-12-22T07:18:09.200Z,997.06
2018-12-22T07:19:09.210Z,997.06
2018-12-22T07:20:09.182Z,997.15
2018-12-22T07:21:09.178Z,997.07
2018-12-22T07:22:09.164Z,997.10
2018-12-22T07:23:09.145Z,997.13
2018-12-22T07:24:09.166Z,997.06
2018-12-22T07:25:09.121Z,997.15
2018-12-22T07:26:09.114Z,997.23
2018-12-22T07:27:09.097Z,997.17
2018-12-22T07:28:09.087Z,997.15
2018-12-22T07:29:09.080Z,997.23
2018-12-22T07:30:09.083Z,997.19
2018-12-22T07:31:09.048Z,997.22
2018-12-22T07:32:09.048Z,997.21
2018-12-22T07:33:09.034Z,997.19
2018-12-22T07:34:09.033Z,997.22
2018-12-22T07:35:09.021Z,997.27
2018-12-22T07:36:09.015Z,997.18
2018-12-22T07:37:08.988Z,997.20
2018-12-22T07:38:09.130Z,997.25
2018-12-22T07:39:08.967Z,997.23
2018-12-22T07:40:09.077Z,997.21
2018-12-22T07:41:08.937Z,997.25
2018-12-22T07:42:08.948Z,997.23
2018-12-22T07:43:08.932Z,997.30
2018-12-22T07:44:08.910Z,997.35
2018-12-22T07:45:08.923Z,997.23
2018-12-22T07:46:08.888Z,997.29
2018-12-22T07:47:08.871Z,997.34
2018-12-22T07:48:08.866Z,997.35
2018-12-22T07:49:08.848Z,997.33
2018-12-22T07:50:08.855Z,997.39
2018-12-22T07:51:08.830Z,997.38
2018-12-22T07:52:08.823Z,997.34
2018-12-22T07:53:08.805Z,997.45
2018-12-22T07:54:08.804Z,997.46
2018-12-22T07:55:08.793Z,997.39
2018-12-22T07:56:08.769Z,997.52
2018-12-22T07:57:08.760Z,997.46
2018-12-22T07:58:08.749Z,997.46
2018-12-22T07:59:08.736Z,997.43
2018-12-22T08:00:08.750Z,997.47
2018-12-22T08:01:08.714Z,997.52
2018-12-22T08:02:08.704Z,997.50
2018-12-22T08:03:08.694Z,997.54
2018-12-22T08:04:08.674Z,997.55
2018-12-22T08:05:08.686Z,997.49
2018-12-22T08:06:08.657Z,997.60
2018-12-22T08:07:08.638Z,997.56
2018-12-22T08:08:08.629Z,997.57
2018-12-22T08:09:08.618Z,997.55
2018-12-22T08:10:08.639Z,997.57
2018-12-22T08:11:08.601Z,997.55
2018-12-22T08:12:08.586Z,997.54
2018-12-22T08:13:08.585Z,997.66
2018-12-22T08:14:08.665Z,997.60
2018-12-22T08:15:08.573Z,997.65
2018-12-22T08:16:08.537Z,997.64
2018-12-22T08:17:08.531Z,997.66
2018-12-22T08:18:08.515Z,997.67
2018-12-22T08:19:08.505Z,997.62
2018-12-22T08:20:08.500Z,997.72
2018-12-22T08:21:08.500Z,997.63
2018-12-22T08:22:08.642Z,997.71
2018-12-22T08:23:08.469Z,997.65
2018-12-22T08:24:08.459Z,997.65
2018-12-22T08:25:08.433Z,997.60
2018-12-22T08:26:08.451Z,997.67
2018-12-22T08:27:08.411Z,997.71
2018-12-22T08:28:08.407Z,997.74
2018-12-22T08:29:08.389Z,997.77
2018-12-22T08:30:08.377Z,997.77
2018-12-22T08:31:08.387Z,997.77
2018-12-22T08:32:08.370Z,997.82
2018-12-22T08:33:08.342Z,997.78
2018-12-22T08:34:08.331Z,997.86
2018-12-22T08:35:08.324Z,997.82
2018-12-22T08:36:08.348Z,997.83
2018-12-22T08:37:08.297Z,997.89
2018-12-22T08:38:08.286Z,997.90
2018-12-22T08:39:08.403Z,997.86
2018-12-22T08:40:08.265Z,997.90
2018-12-22T08:41:08.266Z,997.93
2018-12-22T08:42:08.242Z,997.97
2018-12-22T08:43:08.238Z,998.02
2018-12-22T08:44:08.213Z,998.03
2018-12-22T08:45:08.210Z,998.07
2018-12-22T08:46:08.230Z,998.10
2018-12-22T08:47:08.186Z,998.10
2018-12-22T08:48:08.172Z,998.19
2018-12-22T08:49:08.169Z,998.15
2018-12-22T08:50:09.384Z,998.19
2018-12-22T08:51:08.163Z,998.25
2018-12-22T08:52:08.130Z,998.25
2018-12-22T08:53:08.109Z,998.29
2018-12-22T08:54:08.114Z,998.31
2018-12-22T08:55:08.093Z,998.32
2018-12-22T08:56:08.098Z,998.32
2018-12-22T08:57:08.067Z,998.33
2018-12-22T08:58:08.057Z,998.32
2018-12-22T08:59:08.049Z,998.31
2018-12-22T09:00:08.036Z,998.34
2018-12-22T09:01:08.046Z,998.38
2018-12-22T09:02:08.012Z,998.44
2018-12-22T09:03:07.997Z,998.47
2018-12-22T09:04:07.992Z,998.43
2018-12-22T09:05:07.981Z,998.41
2018-12-22T09:06:07.992Z,998.46
2018-12-22T09:07:07.967Z,998.42
2018-12-22T09:08:07.941Z,998.43
2018-12-22T09:09:07.929Z,998.39
2018-12-22T09:10:07.924Z,998.43
2018-12-22T09:11:07.905Z,998.48
2018-12-22T09:12:07.922Z,998.45
2018-12-22T09:13:07.884Z,998.53
2018-12-22T09:14:07.875Z,998.48
2018-12-22T09:15:07.865Z,998.48
2018-12-22T09:16:07.852Z,998.50
2018-12-22T09:17:07.850Z,998.48
2018-12-22T09:18:07.829Z,998.55
2018-12-22T09:19:07.816Z,998.46
2018-12-22T09:20:07.802Z,998.48
2018-12-22T09:21:07.795Z,998.50
2018-12-22T09:22:07.808Z,998.45
2018-12-22T09:23:07.785Z,998.46
2018-12-22T09:24:07.767Z,998.49
2018-12-22T09:25:07.757Z,998.52
2018-12-22T09:26:08.612Z,998.51
2018-12-22T09:27:07.751Z,998.50
2018-12-22T09:28:07.710Z,998.61
2018-12-22T09:29:07.701Z,998.59
2018-12-22T09:30:07.686Z,998.59
2018-12-22T09:31:07.675Z,998.58
2018-12-22T09:32:07.697Z,998.57
2018-12-22T09:33:07.652Z,998.58
2018-12-22T09:34:13.284Z,998.55
2018-12-22T09:35:08.636Z,998.62
2018-12-22T09:36:07.617Z,998.57
2018-12-22T09:37:07.627Z,998.61
2018-12-22T09:38:07.602Z,998.63
2018-12-22T09:39:07.657Z,998.68
2018-12-22T09:40:07.575Z,998.69
2018-12-22T09:41:07.559Z,998.64
2018-12-22T09:42:07.547Z,998.63
2018-12-22T09:43:07.556Z,998.69
2018-12-22T09:44:07.532Z,998.71
2018-12-22T09:45:07.508Z,998.70
2018-12-22T09:46:07.502Z,998.69
2018-12-22T09:47:07.631Z,998.70
2018-12-22T09:48:08.497Z,998.70
2018-12-22T09:49:07.469Z,998.74
2018-12-22T09:50:07.455Z,998.83
2018-12-22T09:51:07.451Z,998.85
2018-12-22T09:52:07.430Z,998.88
2018-12-22T09:53:07.577Z,998.89
2018-12-22T09:54:07.420Z,998.97
2018-12-22T09:55:07.398Z,998.94
2018-12-22T09:56:07.391Z,998.90
2018-12-22T09:57:07.402Z,998.89
2018-12-22T09:58:07.389Z,998.88
2018-12-22T09:59:07.354Z,998.89
2018-12-22T10:00:07.351Z,998.89
2018-12-22T10:01:09.374Z,998.86
2018-12-22T10:02:07.323Z,998.93
2018-12-22T10:03:07.341Z,999.02
2018-12-22T10:04:07.321Z,998.99
2018-12-22T10:05:07.300Z,999.02
2018-12-22T10:06:07.276Z,999.05
2018-12-22T10:07:07.259Z,999.05
2018-12-22T10:08:07.278Z,999.05
2018-12-22T10:09:07.241Z,999.10
2018-12-22T10:10:07.224Z,999.10
2018-12-22T10:11:07.219Z,999.12
2018-12-22T10:12:07.199Z,999.12
2018-12-22T10:13:07.215Z,999.17
2018-12-22T10:14:07.185Z,999.15
2018-12-22T10:15:07.172Z,999.19
2018-12-22T10:16:07.163Z,999.20
2018-12-22T10:17:07.149Z,999.27
2018-12-22T10:18:07.155Z,999.24
2018-12-22T10:19:07.123Z,999.23
2018-12-22T10:20:07.107Z,999.32
2018-12-22T10:21:07.103Z,999.32
2018-12-22T10:22:07.092Z,999.20
2018-12-22T10:23:07.107Z,999.31
2018-12-22T10:24:07.068Z,999.32
2018-12-22T10:25:07.055Z,999.31
2018-12-22T10:26:07.040Z,999.40
2018-12-22T10:27:07.039Z,999.38
2018-12-22T10:28:07.046Z,999.39
2018-12-22T10:29:07.005Z,999.45
2018-12-22T10:30:06.990Z,999.40
2018-12-22T10:31:06.984Z,999.44
2018-12-22T10:32:06.978Z,999.49
2018-12-22T10:33:06.986Z,999.48
2018-12-22T10:34:06.948Z,999.52
2018-12-22T10:35:06.938Z,999.54
2018-12-22T10:36:06.927Z,999.54
2018-12-22T10:37:06.914Z,999.59
2018-12-22T10:38:06.920Z,999.63
2018-12-22T10:39:06.912Z,999.57
2018-12-22T10:40:06.883Z,999.59
2018-12-22T10:41:06.867Z,999.64
2018-12-22T10:42:06.858Z,999.64
2018-12-22T10:43:06.839Z,999.72
2018-12-22T10:44:06.848Z,999.73
2018-12-22T10:45:06.829Z,999.80
2018-12-22T10:46:06.816Z,999.78
2018-12-22T10:47:06.799Z,999.74
2018-12-22T10:48:06.788Z,999.84
2018-12-22T10:49:06.800Z,999.86
2018-12-22T10:50:06.764Z,999.89
2018-12-22T10:51:06.753Z,999.85
2018-12-22T10:52:06.732Z,999.92
2018-12-22T10:53:06.745Z,999.91
2018-12-22T10:54:06.737Z,999.97
2018-12-22T10:55:06.702Z,1000.00
2018-12-22T10:56:06.693Z,1000.01
2018-12-22T10:57:06.683Z,1000.10
2018-12-22T10:58:06.666Z,999.96
2018-12-22T10:59:06.700Z,1000.07
2018-12-22T11:00:11.743Z,1000.07
2018-12-22T11:01:06.651Z,1000.11
2018-12-22T11:02:06.622Z,1000.06
2018-12-22T11:03:06.616Z,1000.11
2018-12-22T11:04:06.621Z,1000.19
2018-12-22T11:05:06.594Z,1000.09
2018-12-22T11:06:06.580Z,1000.12
2018-12-22T11:07:06.578Z,1000.17
2018-12-22T11:08:06.554Z,1000.17
2018-12-22T11:09:06.567Z,1000.16
2018-12-22T11:10:06.535Z,1000.27
2018-12-22T11:11:06.519Z,1000.28
2018-12-22T11:12:06.516Z,1000.23
2018-12-22T11:13:06.500Z,1000.21
2018-12-22T11:14:06.503Z,1000.27
2018-12-22T11:15:06.495Z,1000.36
2018-12-22T11:16:06.458Z,1000.38
2018-12-22T11:17:06.479Z,1000.38
2018-12-22T11:18:06.451Z,1000.41
2018-12-22T11:19:06.447Z,1000.42
2018-12-22T11:20:06.423Z,1000.41
2018-12-22T11:21:06.407Z,1000.44
2018-12-22T11:22:06.400Z,1000.46
2018-12-22T11:23:06.399Z,1000.41
2018-12-22T11:24:06.392Z,1000.46
2018-12-22T11:25:06.363Z,1000.49
2018-12-22T11:26:06.347Z,1000.54
2018-12-22T11:27:06.351Z,1000.59
2018-12-22T11:28:06.326Z,1000.52
2018-12-22T11:29:06.338Z,1000.50
2018-12-22T11:30:06.325Z,1000.54
2018-12-22T11:31:06.296Z,1000.55
2018-12-22T11:32:06.282Z,1000.56
2018-12-22T11:33:06.263Z,1000.60
2018-12-22T11:34:06.299Z,1000.63
2018-12-22T11:35:06.250Z,1000.67
2018-12-22T11:36:06.236Z,1000.69
2018-12-22T11:37:06.220Z,1000.61
2018-12-22T11:38:06.207Z,1000.64
2018-12-22T11:39:06.193Z,1000.66
2018-12-22T11:40:06.214Z,1000.70
2018-12-22T11:41:06.178Z,1000.72
2018-12-22T11:42:06.170Z,1000.73
2018-12-22T11:43:06.154Z,1000.74
2018-12-22T11:44:06.140Z,1000.79
2018-12-22T11:45:06.148Z,1000.81
2018-12-22T11:46:06.117Z,1000.88
2018-12-22T11:47:06.118Z,1000.83
2018-12-22T11:48:06.093Z,1000.89
2018-12-22T11:49:06.096Z,1000.90
2018-12-22T11:50:06.089Z,1000.91
2018-12-22T11:51:06.058Z,1000.98
2018-12-22T11:52:06.049Z,1001.01
2018-12-22T11:53:06.038Z,1000.99
2018-12-22T11:54:06.024Z,1001.02
2018-12-22T11:55:06.041Z,1001.02
2018-12-22T11:56:05.999Z,1001.07
2018-12-22T11:57:05.996Z,1001.06
2018-12-22T11:58:05.984Z,1001.04
2018-12-22T11:59:05.968Z,1001.08
2018-12-22T12:00:05.985Z,1001.08
2018-12-22T12:01:06.010Z,1001.10
2018-12-22T12:02:09.928Z,1001.14
2018-12-22T12:03:05.923Z,1001.15
2018-12-22T12:04:05.906Z,1001.19
2018-12-22T12:05:05.913Z,1001.21
2018-12-22T12:06:05.885Z,1001.23
2018-12-22T12:07:05.879Z,1001.23
2018-12-22T12:08:05.861Z,1001.30
2018-12-22T12:09:05.846Z,1001.33
2018-12-22T12:10:05.880Z,1001.41
2018-12-22T12:11:05.954Z,1001.45
2018-12-22T12:12:05.813Z,1001.54
2018-12-22T12:13:05.805Z,1001.56
2018-12-22T12:14:05.793Z,1001.61
2018-12-22T12:15:05.785Z,1001.66
2018-12-22T12:16:05.794Z,1001.67
2018-12-22T12:17:05.757Z,1001.71
2018-12-22T12:18:05.751Z,1001.76
2018-12-22T12:19:05.740Z,1001.77
2018-12-22T12:20:05.719Z,1001.81
2018-12-22T12:21:05.724Z,1001.83
2018-12-22T12:22:05.703Z,1001.78
2018-12-22T12:23:05.697Z,1001.84
2018-12-22T12:24:05.678Z,1001.84
2018-12-22T12:25:05.666Z,1001.89